Meductic, Canada
Current Conditions -  °F | °C
As of 11:53 AM on Thursday 30 Oct 2014 (Local Time) from KHUL Reporting Station
Scattered Clouds Scattered Clouds  
Wind Chill: 41°   Ceiling: Unl
Heat Index: 46°   Visibility: 10mi
Dew Point: 37°   Wind: 10mph
Humidity: 71%   Direction: 310°NW
Pressure: 29.82"   Gusts: NA
Location:  46°N, 67.47°W
Report Text: KHUL 301453Z AUTO 31009KT 10SM SCT023 08/03 A2982 RMK AO2 SLP102 T00780028 51011
Loading
Personal Weather Stations






























Interactive Weather Map
Tropical Storm Tracking
New forecast layout! Learn more

10-Day Weather Forecast

Advertisements
Track Severe Weather on mobile